TOM7U LECH-EGPH
Flight info
| Callsign | TOM7U |
|---|---|
| Flight time | N/A |
| Altitude | 36000 |
| Route | MATEX DCT TOPTU DCT OSMOB DCT TUPAR UN861 DIKRO UM184 HEMEL T420 TNT UN57 POL UN601 RIBEL DCT INPIP |
| Aircraft | B38M/M-SADE2E3GIJ4J7RWZ/LB1D1 |
Departure
| Time | 2026-04-23 21:00 |
|---|---|
| Airport | Castellón-Costa Azahar Airport (LECH) |
Arrival
| Time | N/A |
|---|---|
| Airport | Edinburgh Airport (EGPH) |
| Time | Latitude | Longitude | Altitude | Speed | Heading |
|---|---|---|---|---|---|
| 2026-04-23 20:37 | 40.20612 | 0.06624 | 1190 ft | 0 kts | 146° |
| 2026-04-23 20:50 | 40.20613 | 0.06623 | 1190 ft | 1 kts | 146° |
| 2026-04-23 20:51 | 40.20625 | 0.06612 | 1190 ft | 2 kts | 146° |
| 2026-04-23 20:51 | 40.20638 | 0.06601 | 1190 ft | 2 kts | 145° |
| 2026-04-23 20:51 | 40.20651 | 0.06592 | 1190 ft | 2 kts | 169° |
| 2026-04-23 20:51 | 40.20666 | 0.06591 | 1190 ft | 2 kts | 188° |
| 2026-04-23 20:52 | 40.20680 | 0.06597 | 1190 ft | 2 kts | 208° |
| 2026-04-23 20:52 | 40.20692 | 0.06608 | 1190 ft | 2 kts | 229° |
| 2026-04-23 20:52 | 40.20696 | 0.06616 | 1190 ft | 1 kts | 240° |
| 2026-04-23 20:52 | 40.20699 | 0.06621 | 1190 ft | 0 kts | 237° |
| 2026-04-23 20:55 | 40.20691 | 0.06606 | 1190 ft | 3 kts | 237° |
| 2026-04-23 20:55 | 40.20669 | 0.06561 | 1190 ft | 8 kts | 237° |
| 2026-04-23 20:56 | 40.20658 | 0.06537 | 1190 ft | 9 kts | 237° |
| 2026-04-23 20:56 | 40.20676 | 0.06412 | 1190 ft | 9 kts | 325° |
| 2026-04-23 20:56 | 40.20703 | 0.06348 | 1190 ft | 7 kts | 266° |
| 2026-04-23 20:56 | 40.20683 | 0.06289 | 1190 ft | 6 kts | 236° |
| 2026-04-23 20:57 | 40.20659 | 0.06243 | 1190 ft | 5 kts | 236° |
| 2026-04-23 20:57 | 40.20639 | 0.06202 | 1190 ft | 4 kts | 245° |
| 2026-04-23 20:57 | 40.20635 | 0.06161 | 1190 ft | 5 kts | 277° |
| 2026-04-23 20:57 | 40.20656 | 0.06119 | 1190 ft | 6 kts | 320° |
| 2026-04-23 20:58 | 40.20701 | 0.06086 | 1190 ft | 8 kts | 329° |
| 2026-04-23 20:58 | 40.20763 | 0.06062 | 1190 ft | 9 kts | 30° |
| 2026-04-23 20:58 | 40.20798 | 0.06113 | 1190 ft | 7 kts | 58° |
| 2026-04-23 20:58 | 40.20844 | 0.06209 | 1190 ft | 17 kts | 58° |
| 2026-04-23 20:59 | 40.20850 | 0.06222 | 1190 ft | 17 kts | 57° |
| 2026-04-23 20:59 | 40.20855 | 0.06231 | 1190 ft | 0 kts | 56° |
| 2026-04-23 20:59 | 40.20861 | 0.06243 | 1190 ft | 13 kts | 56° |
| 2026-04-23 20:59 | 40.21049 | 0.06623 | 1190 ft | 83 kts | 57° |
| 2026-04-23 21:00 | 40.21475 | 0.07484 | 1190 ft | 140 kts | 58° |
| 2026-04-23 21:00 | 40.22078 | 0.08696 | 1384 ft | 169 kts | 57° |
| 2026-04-23 21:00 | 40.22678 | 0.10037 | 1937 ft | 174 kts | 60° |
| 2026-04-23 21:00 | 40.23267 | 0.11401 | 2538 ft | 178 kts | 58° |
| 2026-04-23 21:01 | 40.23969 | 0.12833 | 2848 ft | 198 kts | 56° |
| 2026-04-23 21:01 | 40.24754 | 0.14371 | 3011 ft | 207 kts | 55° |
| 2026-04-23 21:01 | 40.25577 | 0.15984 | 3408 ft | 222 kts | 55° |
| 2026-04-23 21:01 | 40.26453 | 0.17717 | 3741 ft | 241 kts | 56° |
| 2026-04-23 21:02 | 40.27127 | 0.18955 | 3959 ft | 254 kts | 49° |
| 2026-04-23 21:02 | 40.28955 | 0.20916 | 4786 ft | 261 kts | 26° |
| 2026-04-23 21:02 | 40.30654 | 0.21689 | 5457 ft | 264 kts | 9° |
| 2026-04-23 21:02 | 40.32485 | 0.21731 | 6135 ft | 267 kts | 351° |
| 2026-04-23 21:03 | 40.34256 | 0.21104 | 6826 ft | 268 kts | 340° |
| 2026-04-23 21:03 | 40.36010 | 0.20188 | 7486 ft | 271 kts | 339° |
| 2026-04-23 21:03 | 40.37810 | 0.19489 | 8125 ft | 274 kts | 349° |
| 2026-04-23 21:03 | 40.39693 | 0.19243 | 8756 ft | 277 kts | 359° |
| 2026-04-23 21:04 | 40.41605 | 0.19468 | 9364 ft | 281 kts | 10° |
| 2026-04-23 21:04 | 40.43510 | 0.20161 | 9981 ft | 284 kts | 18° |
| 2026-04-23 21:04 | 40.45348 | 0.21080 | 10459 ft | 292 kts | 20° |
| 2026-04-23 21:04 | 40.47306 | 0.22125 | 10529 ft | 314 kts | 21° |
| 2026-04-23 21:05 | 40.49386 | 0.23234 | 10677 ft | 332 kts | 21° |
| 2026-04-23 21:05 | 40.51530 | 0.24367 | 11140 ft | 338 kts | 20° |
| 2026-04-23 21:05 | 40.53771 | 0.25292 | 11672 ft | 340 kts | 12° |
| 2026-04-23 21:05 | 40.56108 | 0.25792 | 12214 ft | 342 kts | 4° |
| 2026-04-23 21:06 | 40.58456 | 0.25849 | 12740 ft | 344 kts | 355° |
| 2026-04-23 21:06 | 40.60863 | 0.25507 | 13272 ft | 346 kts | 351° |
| 2026-04-23 21:06 | 40.63208 | 0.25060 | 13766 ft | 348 kts | 350° |
| 2026-04-23 21:06 | 40.65601 | 0.24585 | 14262 ft | 351 kts | 350° |
| 2026-04-23 21:07 | 40.68038 | 0.24098 | 14749 ft | 354 kts | 350° |
| 2026-04-23 21:07 | 40.70472 | 0.23612 | 15225 ft | 356 kts | 350° |
| 2026-04-23 21:07 | 40.72894 | 0.23130 | 15679 ft | 359 kts | 350° |
| 2026-04-23 21:07 | 40.75376 | 0.22636 | 16135 ft | 361 kts | 350° |
| 2026-04-23 21:08 | 40.77847 | 0.22144 | 16571 ft | 364 kts | 350° |
| 2026-04-23 21:08 | 40.80344 | 0.21646 | 17000 ft | 366 kts | 350° |
| 2026-04-23 21:08 | 40.82867 | 0.21143 | 17425 ft | 368 kts | 350° |
| 2026-04-23 21:08 | 40.85397 | 0.20639 | 17834 ft | 371 kts | 350° |
| 2026-04-23 21:09 | 40.87969 | 0.20125 | 18241 ft | 373 kts | 350° |
| 2026-04-23 21:09 | 40.90509 | 0.19618 | 18628 ft | 376 kts | 350° |
| 2026-04-23 21:09 | 40.93092 | 0.19102 | 19012 ft | 378 kts | 350° |
| 2026-04-23 21:09 | 40.95689 | 0.18582 | 19389 ft | 380 kts | 350° |
| 2026-04-23 21:10 | 40.98299 | 0.18060 | 19769 ft | 382 kts | 349° |
| 2026-04-23 21:10 | 41.00933 | 0.17533 | 20151 ft | 383 kts | 349° |
| 2026-04-23 21:10 | 41.03563 | 0.17006 | 20509 ft | 385 kts | 349° |
| 2026-04-23 21:10 | 41.06210 | 0.16476 | 20876 ft | 387 kts | 348° |
| 2026-04-23 21:11 | 41.08867 | 0.15942 | 21221 ft | 389 kts | 348° |
| 2026-04-23 21:11 | 41.11542 | 0.15405 | 21562 ft | 390 kts | 348° |
| 2026-04-23 21:11 | 41.14222 | 0.14866 | 21891 ft | 392 kts | 347° |
| 2026-04-23 21:11 | 41.16913 | 0.14324 | 22205 ft | 394 kts | 347° |
| 2026-04-23 21:12 | 41.19627 | 0.13777 | 22515 ft | 396 kts | 347° |
| 2026-04-23 21:12 | 41.22356 | 0.13227 | 22818 ft | 398 kts | 347° |
| 2026-04-23 21:12 | 41.25078 | 0.12677 | 23108 ft | 400 kts | 347° |
| 2026-04-23 21:12 | 41.27860 | 0.12116 | 23402 ft | 402 kts | 347° |
| 2026-04-23 21:13 | 41.30596 | 0.11563 | 23689 ft | 404 kts | 347° |
| 2026-04-23 21:13 | 41.33391 | 0.10998 | 23959 ft | 406 kts | 347° |
| 2026-04-23 21:13 | 41.36160 | 0.10437 | 24250 ft | 407 kts | 347° |
| 2026-04-23 21:13 | 41.38960 | 0.09870 | 24502 ft | 410 kts | 347° |
| 2026-04-23 21:14 | 41.41773 | 0.09300 | 24768 ft | 411 kts | 347° |
| 2026-04-23 21:14 | 41.44622 | 0.08721 | 25031 ft | 413 kts | 347° |
| 2026-04-23 21:14 | 41.47456 | 0.08146 | 25285 ft | 415 kts | 347° |
| 2026-04-23 21:14 | 41.50306 | 0.07567 | 25548 ft | 416 kts | 347° |
| 2026-04-23 21:15 | 41.53137 | 0.06991 | 25797 ft | 417 kts | 347° |
| 2026-04-23 21:15 | 41.56001 | 0.06408 | 26020 ft | 419 kts | 347° |
| 2026-04-23 21:15 | 41.58889 | 0.05819 | 26249 ft | 421 kts | 347° |
| 2026-04-23 21:15 | 41.61784 | 0.05228 | 26471 ft | 423 kts | 347° |
| 2026-04-23 21:16 | 41.64701 | 0.04633 | 26698 ft | 424 kts | 347° |
| 2026-04-23 21:16 | 41.67581 | 0.04045 | 26912 ft | 426 kts | 347° |
| 2026-04-23 21:16 | 41.70494 | 0.03449 | 27117 ft | 428 kts | 347° |
| 2026-04-23 21:16 | 41.73467 | 0.02840 | 27317 ft | 430 kts | 347° |
| 2026-04-23 21:17 | 41.76410 | 0.02237 | 27522 ft | 431 kts | 347° |
| 2026-04-23 21:17 | 41.79374 | 0.01629 | 27723 ft | 433 kts | 347° |
| 2026-04-23 21:17 | 41.82327 | 0.01023 | 27932 ft | 434 kts | 347° |
| 2026-04-23 21:17 | 41.85310 | 0.00410 | 28125 ft | 435 kts | 347° |
| 2026-04-23 21:18 | 41.88297 | -0.00204 | 28311 ft | 437 kts | 347° |
| 2026-04-23 21:18 | 41.91277 | -0.00817 | 28506 ft | 438 kts | 347° |
| 2026-04-23 21:18 | 41.94304 | -0.01441 | 28692 ft | 439 kts | 347° |
| 2026-04-23 21:18 | 41.97294 | -0.02058 | 28877 ft | 441 kts | 347° |
| 2026-04-23 21:19 | 42.00320 | -0.02683 | 29041 ft | 442 kts | 347° |
| 2026-04-23 21:19 | 42.03371 | -0.03313 | 29226 ft | 443 kts | 347° |
| 2026-04-23 21:19 | 42.06383 | -0.03936 | 29391 ft | 445 kts | 347° |
| 2026-04-23 21:19 | 42.09451 | -0.04571 | 29562 ft | 446 kts | 347° |
| 2026-04-23 21:20 | 42.12507 | -0.05204 | 29695 ft | 448 kts | 347° |
| 2026-04-23 21:20 | 42.15595 | -0.05844 | 29877 ft | 448 kts | 347° |
| 2026-04-23 21:20 | 42.18665 | -0.06482 | 30025 ft | 450 kts | 347° |
| 2026-04-23 21:20 | 42.21735 | -0.07120 | 30175 ft | 451 kts | 347° |
| 2026-04-23 21:21 | 42.24821 | -0.07761 | 30346 ft | 452 kts | 347° |
| 2026-04-23 21:21 | 42.27941 | -0.08411 | 30522 ft | 452 kts | 347° |
| 2026-04-23 21:21 | 42.31015 | -0.09051 | 30679 ft | 453 kts | 347° |
| 2026-04-23 21:21 | 42.34111 | -0.09697 | 30896 ft | 452 kts | 347° |
| 2026-04-23 21:22 | 42.37204 | -0.10343 | 31095 ft | 452 kts | 347° |
| 2026-04-23 21:22 | 42.40329 | -0.10996 | 31288 ft | 451 kts | 347° |
| 2026-04-23 21:22 | 42.43408 | -0.11640 | 31479 ft | 451 kts | 347° |
| 2026-04-23 21:22 | 42.46503 | -0.12289 | 31655 ft | 451 kts | 347° |
| 2026-04-23 21:23 | 42.49600 | -0.12938 | 31866 ft | 450 kts | 347° |
| 2026-04-23 21:23 | 42.52664 | -0.13582 | 32013 ft | 451 kts | 347° |
| 2026-04-23 21:23 | 42.55766 | -0.14233 | 32234 ft | 449 kts | 347° |
| 2026-04-23 21:23 | 42.58809 | -0.14874 | 32367 ft | 450 kts | 347° |
| 2026-04-23 21:24 | 42.61897 | -0.15524 | 32557 ft | 450 kts | 347° |
| 2026-04-23 21:24 | 42.64977 | -0.16174 | 32723 ft | 449 kts | 347° |
| 2026-04-23 21:24 | 42.68062 | -0.16825 | 32895 ft | 449 kts | 346° |
| 2026-04-23 21:24 | 42.71128 | -0.17472 | 33047 ft | 449 kts | 347° |
| 2026-04-23 21:25 | 42.74204 | -0.18123 | 33212 ft | 449 kts | 347° |
| 2026-04-23 21:25 | 42.77276 | -0.18771 | 33369 ft | 449 kts | 347° |
| 2026-04-23 21:25 | 42.80392 | -0.19233 | 33540 ft | 451 kts | 351° |
| 2026-04-23 21:25 | 42.83502 | -0.19541 | 33681 ft | 451 kts | 352° |
| 2026-04-23 21:26 | 42.86632 | -0.19811 | 33832 ft | 451 kts | 352° |
| 2026-04-23 21:26 | 42.89756 | -0.20068 | 33993 ft | 451 kts | 351° |
| 2026-04-23 21:26 | 42.92841 | -0.20316 | 34150 ft | 450 kts | 351° |
| 2026-04-23 21:26 | 42.95949 | -0.20562 | 34355 ft | 449 kts | 350° |
| 2026-04-23 21:27 | 42.99066 | -0.20807 | 34556 ft | 447 kts | 349° |
| 2026-04-23 21:27 | 43.02160 | -0.21048 | 34754 ft | 445 kts | 348° |
| 2026-04-23 21:27 | 43.05214 | -0.21284 | 34946 ft | 443 kts | 348° |
| 2026-04-23 21:27 | 43.08281 | -0.21520 | 35084 ft | 443 kts | 348° |
| 2026-04-23 21:28 | 43.11375 | -0.21759 | 35233 ft | 442 kts | 348° |
| 2026-04-23 21:28 | 43.14397 | -0.21993 | 35328 ft | 443 kts | 348° |
| 2026-04-23 21:28 | 43.17487 | -0.22232 | 35486 ft | 441 kts | 348° |
| 2026-04-23 21:28 | 43.20543 | -0.22467 | 35598 ft | 441 kts | 348° |
| 2026-04-23 21:29 | 43.26629 | -0.22933 | 35839 ft | 441 kts | 348° |
| 2026-04-23 21:29 | 43.29697 | -0.23170 | 35962 ft | 440 kts | 348° |
| 2026-04-23 21:29 | 43.32738 | -0.23404 | 36088 ft | 440 kts | 348° |
| 2026-04-23 21:30 | 43.35795 | -0.23639 | 36209 ft | 440 kts | 348° |
| 2026-04-23 21:30 | 43.38828 | -0.23873 | 36338 ft | 440 kts | 348° |
| 2026-04-23 21:30 | 43.41853 | -0.24107 | 36464 ft | 440 kts | 348° |
| 2026-04-23 21:30 | 43.44925 | -0.24345 | 36574 ft | 440 kts | 348° |
| 2026-04-23 21:31 | 43.47940 | -0.24577 | 36681 ft | 440 kts | 348° |
| 2026-04-23 21:31 | 43.51014 | -0.24814 | 36812 ft | 439 kts | 348° |
| 2026-04-23 21:31 | 43.54012 | -0.25046 | 36925 ft | 439 kts | 348° |
| 2026-04-23 21:31 | 43.57086 | -0.25285 | 37006 ft | 440 kts | 348° |
| 2026-04-23 21:32 | 43.60136 | -0.25522 | 37130 ft | 439 kts | 348° |
| 2026-04-23 21:32 | 43.63160 | -0.25757 | 37230 ft | 439 kts | 348° |
| 2026-04-23 21:32 | 43.69224 | -0.26229 | 37419 ft | 440 kts | 348° |
| 2026-04-23 21:33 | 43.75330 | -0.26705 | 37622 ft | 440 kts | 348° |
| 2026-04-23 21:33 | 43.78375 | -0.26943 | 37748 ft | 439 kts | 348° |
| 2026-04-23 21:33 | 43.81408 | -0.27178 | 37853 ft | 439 kts | 348° |
| 2026-04-23 21:34 | 43.87463 | -0.27651 | 38056 ft | 438 kts | 348° |
| 2026-04-23 21:34 | 43.93565 | -0.28131 | 38074 ft | 443 kts | 348° |
| 2026-04-23 21:35 | 43.99686 | -0.28611 | 38074 ft | 443 kts | 348° |
| 2026-04-23 21:35 | 44.05830 | -0.29093 | 38072 ft | 441 kts | 348° |
| 2026-04-23 21:36 | 44.14989 | -0.29817 | 38074 ft | 442 kts | 348° |
| 2026-04-23 21:37 | 44.21133 | -0.30303 | 38074 ft | 444 kts | 348° |
| 2026-04-23 21:37 | 44.27243 | -0.30786 | 38074 ft | 443 kts | 348° |
| 2026-04-23 21:38 | 44.33396 | -0.31274 | 38073 ft | 443 kts | 348° |
| 2026-04-23 21:38 | 44.39495 | -0.31758 | 38074 ft | 442 kts | 348° |
| 2026-04-23 21:39 | 44.45622 | -0.32248 | 38074 ft | 443 kts | 348° |
| 2026-04-23 21:39 | 44.51745 | -0.32738 | 38074 ft | 443 kts | 348° |
| 2026-04-23 21:40 | 44.57904 | -0.33231 | 38074 ft | 444 kts | 348° |
| 2026-04-23 21:40 | 44.64042 | -0.33740 | 38073 ft | 442 kts | 346° |
| 2026-04-23 21:41 | 44.70083 | -0.34710 | 38073 ft | 438 kts | 344° |
| 2026-04-23 21:41 | 44.76069 | -0.35777 | 38074 ft | 437 kts | 344° |
| 2026-04-23 21:42 | 44.82091 | -0.36851 | 38074 ft | 438 kts | 344° |
| 2026-04-23 21:42 | 44.88107 | -0.37925 | 38074 ft | 439 kts | 344° |
| 2026-04-23 21:43 | 44.94161 | -0.39004 | 38073 ft | 439 kts | 344° |
| 2026-04-23 21:43 | 45.00077 | -0.40058 | 38075 ft | 439 kts | 344° |
| 2026-04-23 21:44 | 45.06115 | -0.41139 | 38079 ft | 441 kts | 345° |
| 2026-04-23 21:44 | 45.12187 | -0.42229 | 38080 ft | 444 kts | 345° |
| 2026-04-23 21:45 | 45.18322 | -0.43329 | 38086 ft | 445 kts | 345° |
| 2026-04-23 21:45 | 45.24436 | -0.44427 | 38093 ft | 444 kts | 345° |
| 2026-04-23 21:46 | 45.30528 | -0.45525 | 38101 ft | 444 kts | 345° |
| 2026-04-23 21:46 | 45.36651 | -0.46631 | 38101 ft | 444 kts | 345° |
| 2026-04-23 21:47 | 45.42731 | -0.47731 | 38101 ft | 444 kts | 345° |
| 2026-04-23 21:47 | 45.48854 | -0.48841 | 38101 ft | 443 kts | 345° |
| 2026-04-23 21:48 | 45.54955 | -0.49951 | 38102 ft | 444 kts | 345° |
| 2026-04-23 21:48 | 45.61055 | -0.51062 | 38101 ft | 444 kts | 345° |
| 2026-04-23 21:49 | 45.67137 | -0.52172 | 38100 ft | 444 kts | 345° |
| 2026-04-23 21:49 | 45.73268 | -0.53294 | 38101 ft | 444 kts | 345° |
| 2026-04-23 21:50 | 45.79372 | -0.54413 | 38101 ft | 444 kts | 345° |
| 2026-04-23 21:50 | 45.85483 | -0.55536 | 38100 ft | 445 kts | 345° |
| 2026-04-23 21:51 | 45.91575 | -0.56658 | 38100 ft | 444 kts | 345° |
| 2026-04-23 21:51 | 45.97690 | -0.57787 | 38101 ft | 444 kts | 345° |
| 2026-04-23 21:52 | 46.03761 | -0.58910 | 38101 ft | 444 kts | 345° |
| 2026-04-23 21:52 | 46.09882 | -0.60045 | 38101 ft | 444 kts | 345° |
| 2026-04-23 21:53 | 46.15961 | -0.61175 | 38101 ft | 444 kts | 345° |
| 2026-04-23 21:53 | 46.22084 | -0.62315 | 38101 ft | 444 kts | 345° |
| 2026-04-23 21:54 | 46.28171 | -0.63451 | 38101 ft | 444 kts | 345° |
| 2026-04-23 21:54 | 46.34267 | -0.64592 | 38101 ft | 444 kts | 345° |
| 2026-04-23 21:55 | 46.40384 | -0.65739 | 38101 ft | 444 kts | 345° |
| 2026-04-23 21:55 | 46.46477 | -0.66852 | 38104 ft | 444 kts | 345° |
| 2026-04-23 21:56 | 46.52604 | -0.67891 | 38108 ft | 444 kts | 345° |
| 2026-04-23 21:56 | 46.58720 | -0.68920 | 38110 ft | 444 kts | 345° |
| 2026-04-23 21:57 | 46.64817 | -0.69946 | 38117 ft | 443 kts | 345° |
| 2026-04-23 21:57 | 46.70906 | -0.70973 | 38125 ft | 444 kts | 345° |
| 2026-04-23 21:58 | 46.77043 | -0.72009 | 38128 ft | 444 kts | 345° |
| 2026-04-23 21:58 | 46.83165 | -0.73045 | 38128 ft | 445 kts | 345° |
| 2026-04-23 21:59 | 46.89257 | -0.74078 | 38128 ft | 445 kts | 345° |
| 2026-04-23 21:59 | 46.95379 | -0.75117 | 38145 ft | 443 kts | 345° |
| 2026-04-23 22:00 | 47.04484 | -0.76666 | 38169 ft | 439 kts | 343° |
| 2026-04-23 22:00 | 47.10498 | -0.77694 | 38169 ft | 438 kts | 343° |
| 2026-04-23 22:01 | 47.16523 | -0.78728 | 38168 ft | 439 kts | 343° |
| 2026-04-23 22:01 | 47.22576 | -0.79768 | 38166 ft | 439 kts | 343° |
| 2026-04-23 22:02 | 47.28599 | -0.80804 | 38171 ft | 438 kts | 343° |
| 2026-04-23 22:02 | 47.34647 | -0.81847 | 38178 ft | 439 kts | 343° |
| 2026-04-23 22:03 | 47.40673 | -0.82889 | 38184 ft | 439 kts | 343° |
| 2026-04-23 22:03 | 47.46744 | -0.83941 | 38189 ft | 439 kts | 343° |
| 2026-04-23 22:04 | 47.52781 | -0.84989 | 38195 ft | 439 kts | 343° |
| 2026-04-23 22:04 | 47.58873 | -0.85876 | 38202 ft | 442 kts | 346° |
| 2026-04-23 22:05 | 47.64968 | -0.86594 | 38206 ft | 442 kts | 346° |
| 2026-04-23 22:05 | 47.71074 | -0.87321 | 38209 ft | 442 kts | 346° |
| 2026-04-23 22:06 | 47.77171 | -0.88056 | 38209 ft | 442 kts | 346° |
| 2026-04-23 22:06 | 47.83272 | -0.88798 | 38209 ft | 441 kts | 346° |
| 2026-04-23 22:07 | 47.89357 | -0.89542 | 38209 ft | 441 kts | 346° |
| 2026-04-23 22:07 | 47.95428 | -0.90287 | 38209 ft | 441 kts | 346° |
| 2026-04-23 22:08 | 48.01526 | -0.91039 | 38209 ft | 442 kts | 346° |
| 2026-04-23 22:08 | 48.07653 | -0.91796 | 38209 ft | 442 kts | 346° |
| 2026-04-23 22:09 | 48.13758 | -0.92552 | 38209 ft | 442 kts | 346° |
| 2026-04-23 22:09 | 48.19845 | -0.93307 | 38209 ft | 442 kts | 346° |
| 2026-04-23 22:10 | 48.25950 | -0.94067 | 38209 ft | 441 kts | 346° |
| 2026-04-23 22:10 | 48.32028 | -0.94825 | 38209 ft | 441 kts | 346° |
| 2026-04-23 22:11 | 48.38139 | -0.95590 | 38209 ft | 442 kts | 346° |
| 2026-04-23 22:11 | 48.44228 | -0.96354 | 38209 ft | 442 kts | 346° |
| 2026-04-23 22:12 | 48.50328 | -0.97120 | 38208 ft | 442 kts | 346° |
| 2026-04-23 22:12 | 48.56458 | -0.97892 | 38209 ft | 441 kts | 346° |
| 2026-04-23 22:13 | 48.62516 | -0.98657 | 38209 ft | 442 kts | 345° |
| 2026-04-23 22:13 | 48.68618 | -0.99430 | 38219 ft | 442 kts | 345° |
| 2026-04-23 22:14 | 48.74745 | -1.00207 | 38240 ft | 442 kts | 345° |
| 2026-04-23 22:14 | 48.80838 | -1.00982 | 38260 ft | 442 kts | 345° |
| 2026-04-23 22:15 | 48.86909 | -1.01757 | 38265 ft | 442 kts | 345° |
| 2026-04-23 22:15 | 48.93035 | -1.02540 | 38268 ft | 441 kts | 345° |
| 2026-04-23 22:16 | 48.99131 | -1.03321 | 38271 ft | 442 kts | 344° |
| 2026-04-23 22:16 | 49.05230 | -1.04107 | 38272 ft | 446 kts | 343° |
| 2026-04-23 22:17 | 49.11451 | -1.04912 | 38272 ft | 451 kts | 342° |
| 2026-04-23 22:17 | 49.17685 | -1.05718 | 38274 ft | 454 kts | 342° |
| 2026-04-23 22:18 | 49.23946 | -1.06523 | 38274 ft | 453 kts | 342° |
| 2026-04-23 22:18 | 49.30175 | -1.07328 | 38276 ft | 452 kts | 341° |
| 2026-04-23 22:19 | 49.36417 | -1.08140 | 38282 ft | 452 kts | 341° |
| 2026-04-23 22:19 | 49.42665 | -1.08955 | 38288 ft | 453 kts | 341° |
| 2026-04-23 22:20 | 49.48923 | -1.09773 | 38290 ft | 453 kts | 341° |
| 2026-04-23 22:20 | 49.55171 | -1.10534 | 38288 ft | 459 kts | 345° |
| 2026-04-23 22:21 | 49.61621 | -1.10253 | 38290 ft | 469 kts | 350° |
| 2026-04-23 22:21 | 49.68092 | -1.09567 | 38290 ft | 470 kts | 351° |
| 2026-04-23 22:22 | 49.74629 | -1.08767 | 38290 ft | 471 kts | 352° |
| 2026-04-23 22:22 | 49.81126 | -1.07924 | 38290 ft | 471 kts | 352° |
| 2026-04-23 22:23 | 49.87599 | -1.07062 | 38290 ft | 471 kts | 352° |
| 2026-04-23 22:23 | 49.94115 | -1.06180 | 38290 ft | 471 kts | 352° |
| 2026-04-23 22:24 | 50.00632 | -1.05291 | 38290 ft | 471 kts | 352° |
| 2026-04-23 22:24 | 50.07097 | -1.04398 | 38290 ft | 471 kts | 352° |
| 2026-04-23 22:25 | 50.13599 | -1.03496 | 38290 ft | 470 kts | 352° |
| 2026-04-23 22:25 | 50.20085 | -1.02593 | 38290 ft | 470 kts | 352° |
| 2026-04-23 22:26 | 50.26587 | -1.01686 | 38293 ft | 470 kts | 352° |
| 2026-04-23 22:26 | 50.33049 | -1.00781 | 38315 ft | 470 kts | 352° |
| 2026-04-23 22:27 | 50.39525 | -0.99870 | 38337 ft | 470 kts | 352° |
| 2026-04-23 22:27 | 50.46018 | -0.98954 | 38344 ft | 470 kts | 353° |
| 2026-04-23 22:28 | 50.52488 | -0.98040 | 38344 ft | 469 kts | 353° |
| 2026-04-23 22:28 | 50.58988 | -0.97121 | 38344 ft | 469 kts | 353° |
| 2026-04-23 22:29 | 50.65445 | -0.96205 | 38344 ft | 469 kts | 353° |
| 2026-04-23 22:29 | 50.71924 | -0.95285 | 38345 ft | 469 kts | 353° |
| 2026-04-23 22:30 | 50.78392 | -0.94130 | 38351 ft | 478 kts | 359° |
| 2026-04-23 22:30 | 50.84915 | -0.91634 | 38365 ft | 487 kts | 4° |
| 2026-04-23 22:31 | 50.91375 | -0.88658 | 38371 ft | 490 kts | 5° |
| 2026-04-23 22:31 | 50.97892 | -0.85460 | 38371 ft | 494 kts | 5° |
| 2026-04-23 22:32 | 51.04451 | -0.82146 | 38371 ft | 499 kts | 4° |
| 2026-04-23 22:32 | 51.11074 | -0.78746 | 38370 ft | 500 kts | 4° |
| 2026-04-23 22:33 | 51.17662 | -0.75330 | 38371 ft | 499 kts | 4° |
| 2026-04-23 22:33 | 51.24200 | -0.71923 | 38371 ft | 498 kts | 4° |
| 2026-04-23 22:34 | 51.30793 | -0.68474 | 38374 ft | 499 kts | 4° |
| 2026-04-23 22:34 | 51.37343 | -0.65032 | 38378 ft | 499 kts | 4° |
| 2026-04-23 22:35 | 51.43932 | -0.61558 | 38382 ft | 499 kts | 4° |
| 2026-04-23 22:35 | 51.50492 | -0.58088 | 38386 ft | 499 kts | 4° |
| 2026-04-23 22:36 | 51.57043 | -0.54612 | 38391 ft | 499 kts | 4° |
| 2026-04-23 22:36 | 51.63633 | -0.51104 | 38396 ft | 499 kts | 4° |
| 2026-04-23 22:37 | 51.70195 | -0.47601 | 38398 ft | 499 kts | 4° |
| 2026-04-23 22:37 | 51.73457 | -0.46054 | 38392 ft | 485 kts | 356° |
| 2026-04-23 22:37 | 51.76736 | -0.45392 | 38400 ft | 464 kts | 346° |
| 2026-04-23 22:38 | 51.79891 | -0.45509 | 38399 ft | 447 kts | 338° |
| 2026-04-23 22:38 | 51.82880 | -0.46266 | 38398 ft | 430 kts | 330° |
| 2026-04-23 22:38 | 51.85686 | -0.47626 | 38398 ft | 414 kts | 322° |
| 2026-04-23 22:38 | 51.88248 | -0.49502 | 38399 ft | 399 kts | 315° |
| 2026-04-23 22:39 | 51.92972 | -0.53941 | 38398 ft | 393 kts | 313° |
| 2026-04-23 22:39 | 51.97639 | -0.58520 | 38398 ft | 392 kts | 313° |
| 2026-04-23 22:40 | 52.02271 | -0.63073 | 38398 ft | 392 kts | 313° |
| 2026-04-23 22:41 | 52.09258 | -0.69936 | 38398 ft | 393 kts | 313° |
| 2026-04-23 22:41 | 52.13938 | -0.74538 | 38396 ft | 393 kts | 313° |
| 2026-04-23 22:42 | 52.18581 | -0.79131 | 38394 ft | 393 kts | 313° |
| 2026-04-23 22:42 | 52.23224 | -0.83728 | 38401 ft | 393 kts | 313° |
| 2026-04-23 22:43 | 52.27885 | -0.88352 | 38410 ft | 393 kts | 313° |
| 2026-04-23 22:43 | 52.32534 | -0.92979 | 38423 ft | 393 kts | 313° |
| 2026-04-23 22:44 | 52.37213 | -0.97639 | 38425 ft | 393 kts | 313° |
| 2026-04-23 22:44 | 52.41869 | -1.02287 | 38431 ft | 396 kts | 313° |
| 2026-04-23 22:45 | 52.46567 | -1.06990 | 38436 ft | 400 kts | 313° |
| 2026-04-23 22:45 | 52.51321 | -1.11763 | 38443 ft | 402 kts | 313° |
| 2026-04-23 22:46 | 52.56064 | -1.16552 | 38449 ft | 404 kts | 314° |
| 2026-04-23 22:46 | 52.60845 | -1.21385 | 38452 ft | 407 kts | 314° |
| 2026-04-23 22:47 | 52.65678 | -1.26271 | 38452 ft | 407 kts | 314° |
| 2026-04-23 22:47 | 52.70486 | -1.31136 | 38452 ft | 406 kts | 314° |
| 2026-04-23 22:48 | 52.75280 | -1.36017 | 38452 ft | 406 kts | 314° |
| 2026-04-23 22:48 | 52.80045 | -1.40882 | 38452 ft | 406 kts | 314° |
| 2026-04-23 22:49 | 52.84832 | -1.45775 | 38452 ft | 407 kts | 314° |
| 2026-04-23 22:49 | 52.89627 | -1.50685 | 38449 ft | 407 kts | 314° |
| 2026-04-23 22:50 | 52.94446 | -1.55631 | 38450 ft | 407 kts | 314° |
| 2026-04-23 22:50 | 52.99215 | -1.60538 | 38452 ft | 407 kts | 314° |
| 2026-04-23 22:51 | 53.04185 | -1.65290 | 38453 ft | 421 kts | 319° |
| 2026-04-23 22:51 | 53.09599 | -1.69203 | 38450 ft | 430 kts | 323° |
| 2026-04-23 22:52 | 53.15074 | -1.72792 | 38448 ft | 433 kts | 324° |
| 2026-04-23 22:52 | 53.20663 | -1.76348 | 38444 ft | 434 kts | 324° |
| 2026-04-23 22:53 | 53.26306 | -1.79900 | 38439 ft | 434 kts | 324° |
| 2026-04-23 22:53 | 53.31949 | -1.83440 | 38436 ft | 434 kts | 324° |
| 2026-04-23 22:54 | 53.37576 | -1.86969 | 38432 ft | 434 kts | 324° |
| 2026-04-23 22:54 | 53.43212 | -1.90508 | 38428 ft | 434 kts | 324° |
| 2026-04-23 22:55 | 53.48857 | -1.94059 | 38431 ft | 434 kts | 324° |
| 2026-04-23 22:55 | 53.54479 | -1.97604 | 38437 ft | 435 kts | 324° |
| 2026-04-23 22:56 | 53.60147 | -2.01187 | 38441 ft | 435 kts | 324° |
| 2026-04-23 22:56 | 53.65755 | -2.04741 | 38439 ft | 435 kts | 324° |
| 2026-04-23 22:57 | 53.71410 | -2.08335 | 38435 ft | 435 kts | 324° |
| 2026-04-23 22:57 | 53.77049 | -2.11986 | 38431 ft | 432 kts | 323° |
| 2026-04-23 22:58 | 53.82560 | -2.15797 | 38435 ft | 432 kts | 323° |
| 2026-04-23 22:58 | 53.88105 | -2.19629 | 38441 ft | 432 kts | 323° |
| 2026-04-23 22:59 | 53.93650 | -2.23455 | 38444 ft | 432 kts | 323° |
| 2026-04-23 22:59 | 53.99200 | -2.27279 | 38440 ft | 432 kts | 323° |
| 2026-04-23 23:00 | 54.04752 | -2.31109 | 38436 ft | 432 kts | 323° |
| 2026-04-23 23:00 | 54.10219 | -2.34891 | 38432 ft | 431 kts | 323° |
| 2026-04-23 23:01 | 54.15836 | -2.38783 | 38438 ft | 430 kts | 323° |
| 2026-04-23 23:01 | 54.21359 | -2.42619 | 38444 ft | 431 kts | 323° |
| 2026-04-23 23:02 | 54.26890 | -2.46468 | 38447 ft | 432 kts | 323° |
| 2026-04-23 23:02 | 54.32449 | -2.50345 | 38449 ft | 432 kts | 323° |
| 2026-04-23 23:03 | 54.37965 | -2.54196 | 38075 ft | 428 kts | 323° |
| 2026-04-23 23:03 | 54.40686 | -2.56098 | 37395 ft | 426 kts | 323° |
| 2026-04-23 23:03 | 54.43420 | -2.58013 | 36779 ft | 423 kts | 323° |
| 2026-04-23 23:03 | 54.46130 | -2.59914 | 36166 ft | 420 kts | 323° |
| 2026-04-23 23:04 | 54.48801 | -2.61792 | 35517 ft | 418 kts | 323° |
| 2026-04-23 23:04 | 54.51462 | -2.63668 | 34864 ft | 416 kts | 323° |
| 2026-04-23 23:04 | 54.54142 | -2.65562 | 34199 ft | 417 kts | 322° |
| 2026-04-23 23:04 | 54.56817 | -2.67461 | 33514 ft | 421 kts | 322° |
| 2026-04-23 23:05 | 54.59530 | -2.69388 | 32801 ft | 424 kts | 323° |
| 2026-04-23 23:05 | 54.62239 | -2.71308 | 32078 ft | 423 kts | 323° |
| 2026-04-23 23:05 | 54.64922 | -2.73213 | 31357 ft | 427 kts | 323° |
| 2026-04-23 23:05 | 54.67667 | -2.75166 | 30719 ft | 426 kts | 324° |
| 2026-04-23 23:06 | 54.70396 | -2.77099 | 30185 ft | 419 kts | 324° |
| 2026-04-23 23:06 | 54.73038 | -2.78975 | 29626 ft | 414 kts | 324° |
| 2026-04-23 23:06 | 54.75687 | -2.80863 | 29059 ft | 410 kts | 324° |
| 2026-04-23 23:06 | 54.77367 | -2.82068 | 28705 ft | 414 kts | 324° |